Time;durP1;ratioP1;P1;durP2;ratioP2;P2;SDS_P1;SDS_P2;PMS_P1;PMS_P2;Temp;Humidity;BMP_temperature;BMP_pressure;BME280_temperature;BME280_humidity;BME280_pressure;Samples;Min_cycle;Max_cycle;Signal;HPM_P1;HPM_P2
2022/01/31 00:01:26;;;;;;;25.60;4.93;;;6.60;99.90;;;;;;5070188;28;20119;-70
2022/01/31 00:03:51;;;;;;;22.00;3.95;;;6.60;99.90;;;;;;5058682;28;20036;-68
2022/01/31 00:06:17;;;;;;;19.92;4.20;;;6.60;99.90;;;;;;5053640;28;20033;-70
2022/01/31 00:08:43;;;;;;;27.15;3.75;;;6.50;99.90;;;;;;5055395;28;20024;-68
2022/01/31 00:11:10;;;;;;;20.83;3.90;;;6.50;99.90;;;;;;5039599;28;20036;-69
2022/01/31 00:13:39;;;;;;;19.67;3.70;;;6.50;99.90;;;;;;5055644;28;20025;-70
2022/01/31 00:16:07;;;;;;;16.95;4.85;;;6.40;99.90;;;;;;5044634;28;20462;-69
2022/01/31 00:18:33;;;;;;;19.10;3.75;;;6.40;99.90;;;;;;5056323;28;20043;-70
2022/01/31 00:20:58;;;;;;;17.10;3.60;;;6.40;99.90;;;;;;5056336;28;20120;-69
2022/01/31 00:23:24;;;;;;;27.27;4.65;;;6.40;99.90;;;;;;5050539;28;20036;-69
2022/01/31 00:25:49;;;;;;;28.13;4.53;;;6.40;99.90;;;;;;5042096;28;20028;-70
2022/01/31 00:28:15;;;;;;;26.80;4.50;;;6.30;99.90;;;;;;5064314;28;20028;-70
2022/01/31 00:30:41;;;;;;;19.05;3.53;;;6.40;99.90;;;;;;5046593;28;20082;-70
2022/01/31 00:33:06;;;;;;;24.23;3.75;;;6.40;99.90;;;;;;5059844;28;20029;-70
2022/01/31 00:35:32;;;;;;;32.15;5.30;;;6.30;99.90;;;;;;5047726;28;20446;-70
2022/01/31 00:37:58;;;;;;;26.23;4.50;;;6.30;99.90;;;;;;5040549;28;20032;-69
2022/01/31 00:40:23;;;;;;;26.92;4.18;;;6.40;99.90;;;;;;5055323;28;20044;-70
2022/01/31 00:42:49;;;;;;;28.85;4.97;;;6.40;99.90;;;;;;5053944;28;20063;-71
2022/01/31 00:45:27;;;;;;;21.98;3.83;;;6.50;99.90;;;;;;5053994;28;20032;-70
2022/01/31 00:48:03;;;;;;;30.52;5.13;;;6.40;99.90;;;;;;5044892;28;20045;-74
2022/01/31 00:50:36;;;;;;;21.38;3.92;;;6.50;99.90;;;;;;5062197;28;20506;-70
2022/01/31 00:53:02;;;;;;;21.83;4.65;;;6.50;99.90;;;;;;5056024;28;20032;-74
2022/01/31 00:55:28;;;;;;;25.02;4.50;;;6.60;99.90;;;;;;5059541;28;20024;-72
2022/01/31 00:57:53;;;;;;;32.67;4.82;;;6.60;99.90;;;;;;5067991;28;20494;-75
2022/01/31 01:00:19;;;;;;;29.73;4.30;;;6.70;99.90;;;;;;5063184;28;20036;-73
2022/01/31 01:02:45;;;;;;;29.05;4.68;;;6.70;99.90;;;;;;5062741;28;20085;-76
2022/01/31 01:05:11;;;;;;;23.23;4.97;;;6.70;99.90;;;;;;5065220;28;20474;-76
2022/01/31 01:07:37;;;;;;;24.88;4.68;;;6.70;99.90;;;;;;5063767;28;20382;-71
2022/01/31 01:10:04;;;;;;;22.05;4.63;;;6.70;99.90;;;;;;5059395;28;20107;-70
2022/01/31 01:12:30;;;;;;;21.45;3.97;;;6.80;99.90;;;;;;5053529;28;20036;-70
2022/01/31 01:14:56;;;;;;;28.10;5.20;;;6.80;99.90;;;;;;5054723;28;20040;-71
2022/01/31 01:17:21;;;;;;;25.30;4.88;;;6.90;99.90;;;;;;5046081;28;20094;-70
2022/01/31 01:19:47;;;;;;;23.48;3.92;;;6.90;99.90;;;;;;5064105;28;20040;-70
2022/01/31 01:22:12;;;;;;;25.88;5.53;;;6.90;99.90;;;;;;5070868;28;20064;-69
2022/01/31 01:24:38;;;;;;;26.70;5.05;;;7.00;99.90;;;;;;5048021;28;20032;-69
2022/01/31 01:27:04;;;;;;;23.52;5.07;;;7.00;99.90;;;;;;5062626;28;20064;-71
2022/01/31 01:29:30;;;;;;;27.27;5.22;;;7.00;99.90;;;;;;5058526;28;20136;-71
2022/01/31 01:31:56;;;;;;;23.92;4.82;;;7.10;99.90;;;;;;5056454;28;20518;-71
2022/01/31 01:34:23;;;;;;;35.80;5.43;;;7.20;99.90;;;;;;5064861;28;20069;-71
2022/01/31 01:36:52;;;;;;;24.00;4.32;;;7.30;99.90;;;;;;5054206;28;20238;-70
2022/01/31 01:39:18;;;;;;;22.13;3.83;;;7.30;99.90;;;;;;5056836;28;20044;-71
2022/01/31 01:41:44;;;;;;;25.67;4.35;;;7.40;99.90;;;;;;5064339;28;20052;-71
2022/01/31 01:44:10;;;;;;;26.23;4.53;;;7.50;99.90;;;;;;5048284;28;20060;-71
2022/01/31 01:46:36;;;;;;;30.33;5.13;;;7.50;99.90;;;;;;5065598;28;20036;-70
2022/01/31 01:49:01;;;;;;;20.40;4.22;;;7.50;99.90;;;;;;5069993;28;20402;-72
2022/01/31 01:51:27;;;;;;;25.90;4.10;;;7.60;99.90;;;;;;5065184;28;20060;-70
2022/01/31 01:53:53;;;;;;;23.50;4.00;;;7.60;99.90;;;;;;5067376;28;20108;-70
2022/01/31 01:56:19;;;;;;;22.88;4.50;;;7.60;99.90;;;;;;5063553;28;20044;-69
2022/01/31 01:58:48;;;;;;;21.92;3.42;;;7.70;99.90;;;;;;5057689;28;20017;-70
2022/01/31 02:01:13;;;;;;;20.98;3.45;;;7.70;99.90;;;;;;5054908;28;20445;-70
2022/01/31 02:03:40;;;;;;;29.75;4.50;;;7.70;99.90;;;;;;5057341;28;20060;-70
2022/01/31 02:06:08;;;;;;;15.73;3.10;;;7.70;99.90;;;;;;5062092;28;20059;-70
2022/01/31 02:08:42;;;;;;;13.55;2.95;;;7.70;99.90;;;;;;5058157;28;20021;-67
2022/01/31 02:11:09;;;;;;;17.33;3.22;;;7.70;99.90;;;;;;5069704;28;20032;-68
2022/01/31 02:13:36;;;;;;;19.35;4.22;;;7.80;99.90;;;;;;5068310;28;20021;-68
2022/01/31 02:16:03;;;;;;;22.20;4.25;;;7.80;99.90;;;;;;5061435;28;20036;-71
2022/01/31 02:18:30;;;;;;;17.85;3.58;;;7.80;99.90;;;;;;5060577;28;20108;-69
2022/01/31 02:20:55;;;;;;;21.38;4.18;;;7.80;99.90;;;;;;5059208;28;20087;-71
2022/01/31 02:23:22;;;;;;;17.58;3.50;;;7.80;99.90;;;;;;5064950;28;20033;-74
2022/01/31 02:26:06;;;;;;;22.60;3.67;;;7.80;99.90;;;;;;5058939;28;20039;-69
2022/01/31 02:28:34;;;;;;;21.20;2.92;;;7.80;99.90;;;;;;5068012;28;20402;-70
2022/01/31 02:31:00;;;;;;;21.15;3.45;;;7.80;99.90;;;;;;5066870;28;20021;-69
2022/01/31 02:33:27;;;;;;;14.27;2.85;;;7.80;99.90;;;;;;5058516;28;20017;-68
2022/01/31 02:35:58;;;;;;;23.45;3.88;;;7.80;99.90;;;;;;5062889;28;20078;-68
2022/01/31 02:38:24;;;;;;;20.15;3.40;;;7.80;99.90;;;;;;5068627;28;20035;-68
2022/01/31 02:40:50;;;;;;;14.77;3.13;;;7.80;99.90;;;;;;5061512;28;20043;-68
2022/01/31 02:43:21;;;;;;;19.75;3.13;;;7.80;99.90;;;;;;5070384;28;20107;-70
2022/01/31 02:45:47;;;;;;;11.43;2.42;;;7.80;99.90;;;;;;5065065;28;20035;-70
2022/01/31 02:48:15;;;;;;;18.13;3.38;;;7.80;99.90;;;;;;5059701;28;20098;-70
2022/01/31 02:50:41;;;;;;;20.90;3.83;;;7.80;99.90;;;;;;5037902;28;20478;-69
2022/01/31 02:53:20;;;;;;;21.77;3.15;;;7.70;99.90;;;;;;5069509;28;20036;-69
2022/01/31 02:55:47;;;;;;;22.73;3.63;;;7.70;99.90;;;;;;5041563;28;20028;-71
2022/01/31 02:58:13;;;;;;;16.65;2.92;;;7.70;99.90;;;;;;5067406;28;20439;-69
2022/01/31 03:00:39;;;;;;;17.55;3.28;;;7.70;99.90;;;;;;5056258;28;20107;-68
2022/01/31 03:03:06;;;;;;;14.05;2.60;;;7.70;99.90;;;;;;5068051;28;20103;-67
2022/01/31 03:05:32;;;;;;;13.48;2.75;;;7.70;99.90;;;;;;5040704;28;20021;-69
2022/01/31 03:07:58;;;;;;;17.52;3.65;;;7.60;99.90;;;;;;5042329;28;20028;-70
2022/01/31 03:10:24;;;;;;;13.35;3.33;;;7.60;99.90;;;;;;5068969;28;20028;-71
2022/01/31 03:12:50;;;;;;;11.70;3.03;;;7.60;99.90;;;;;;5069375;28;20028;-71
2022/01/31 03:15:15;;;;;;;16.88;2.90;;;7.60;99.90;;;;;;5070401;28;20107;-67
2022/01/31 03:17:46;;;;;;;21.20;2.83;;;7.70;99.90;;;;;;5039621;28;20029;-71
2022/01/31 03:20:12;;;;;;;24.88;4.13;;;7.70;99.90;;;;;;5060186;28;20258;-66
2022/01/31 03:22:37;;;;;;;20.05;3.20;;;7.70;99.90;;;;;;5063065;28;20115;-69
2022/01/31 03:25:03;;;;;;;19.10;3.22;;;7.80;99.90;;;;;;5057511;28;20447;-67
2022/01/31 03:27:29;;;;;;;20.95;3.58;;;7.80;99.90;;;;;;5066608;28;20013;-70
2022/01/31 03:29:54;;;;;;;20.50;2.60;;;7.90;99.90;;;;;;5059434;28;20486;-67
2022/01/31 03:32:20;;;;;;;20.10;2.60;;;7.90;99.90;;;;;;5065374;28;20033;-68
2022/01/31 03:34:46;;;;;;;14.10;2.78;;;8.00;99.90;;;;;;5062247;28;20202;-70
2022/01/31 03:37:11;;;;;;;18.92;3.30;;;8.00;99.90;;;;;;5058986;28;20033;-68
2022/01/31 03:39:37;;;;;;;21.83;4.03;;;8.10;99.90;;;;;;5055662;28;20037;-68
2022/01/31 03:42:03;;;;;;;16.95;3.13;;;8.10;99.90;;;;;;5060311;28;20066;-68
2022/01/31 03:44:29;;;;;;;12.85;2.50;;;8.10;99.90;;;;;;5062936;28;20033;-70
2022/01/31 03:46:56;;;;;;;18.00;2.80;;;8.10;99.90;;;;;;5066413;28;20027;-70
2022/01/31 03:49:21;;;;;;;16.10;2.95;;;8.10;99.90;;;;;;5057685;28;20115;-68
2022/01/31 03:51:47;;;;;;;24.23;3.20;;;8.10;99.90;;;;;;5060253;28;20462;-68
2022/01/31 03:54:13;;;;;;;21.50;3.25;;;8.10;99.90;;;;;;5057013;28;20079;-67
2022/01/31 03:56:39;;;;;;;22.90;3.67;;;8.20;99.90;;;;;;5064495;28;20044;-71
2022/01/31 03:59:05;;;;;;;15.63;3.97;;;8.20;99.90;;;;;;5059929;28;20522;-70
2022/01/31 04:01:31;;;;;;;19.98;3.47;;;8.20;99.90;;;;;;5065223;28;20064;-68
2022/01/31 04:03:57;;;;;;;21.02;2.97;;;8.20;99.90;;;;;;5056054;28;20065;-67
2022/01/31 04:06:25;;;;;;;26.83;3.22;;;8.20;99.90;;;;;;5066308;28;20035;-69
2022/01/31 04:08:51;;;;;;;21.58;4.13;;;8.20;99.90;;;;;;5061729;28;20398;-70
2022/01/31 04:11:17;;;;;;;20.83;3.63;;;8.20;99.90;;;;;;5054563;28;20399;-72
2022/01/31 04:13:43;;;;;;;22.27;3.60;;;8.20;99.90;;;;;;5058927;28;20059;-69
2022/01/31 04:16:08;;;;;;;25.70;3.63;;;8.30;99.90;;;;;;5064444;28;20033;-70
2022/01/31 04:18:34;;;;;;;21.17;4.03;;;8.30;99.90;;;;;;5071224;28;20024;-68
2022/01/31 04:21:00;;;;;;;18.10;3.35;;;8.30;99.90;;;;;;5058910;28;20120;-69
2022/01/31 04:23:28;;;;;;;24.50;4.07;;;8.30;99.90;;;;;;5065918;28;20016;-69
2022/01/31 04:26:01;;;;;;;14.70;2.72;;;8.30;99.90;;;;;;5063903;28;20090;-68
2022/01/31 04:28:33;;;;;;;16.50;3.65;;;8.30;99.90;;;;;;5064225;28;20024;-68
2022/01/31 04:33:25;;;;;;;13.10;3.15;;;8.30;99.90;;;;;;5069620;28;20068;-69
2022/01/31 04:35:52;;;;;;;13.95;3.10;;;8.20;99.90;;;;;;5061106;28;20482;-71
2022/01/31 04:38:18;;;;;;;16.35;2.28;;;8.10;99.90;;;;;;5061884;28;20021;-71
2022/01/31 04:40:44;;;;;;;18.65;2.45;;;7.80;99.90;;;;;;5053121;28;20070;-70
2022/01/31 04:43:09;;;;;;;16.15;3.13;;;7.60;99.90;;;;;;5069753;28;20463;-70
2022/01/31 04:45:35;;;;;;;17.02;3.20;;;7.40;99.90;;;;;;5064756;28;20017;-70
2022/01/31 04:48:01;;;;;;;18.00;3.22;;;7.30;99.90;;;;;;5061072;28;20043;-69
2022/01/31 04:50:26;;;;;;;21.90;3.45;;;7.10;99.90;;;;;;5059899;28;20076;-70
2022/01/31 04:52:52;;;;;;;15.80;3.20;;;7.10;99.90;;;;;;5052982;28;20029;-70
2022/01/31 04:55:18;;;;;;;13.48;2.58;;;7.10;99.90;;;;;;5063375;28;20075;-71
2022/01/31 04:57:44;;;;;;;21.65;3.65;;;7.20;99.90;;;;;;5064520;28;20028;-71
2022/01/31 05:00:10;;;;;;;17.25;2.95;;;7.10;99.90;;;;;;5037250;28;20044;-70
2022/01/31 05:02:36;;;;;;;20.40;3.63;;;7.10;99.90;;;;;;5071147;28;20075;-71
2022/01/31 05:05:03;;;;;;;19.08;3.47;;;7.10;99.90;;;;;;5068377;28;20052;-71
2022/01/31 05:07:29;;;;;;;23.65;3.65;;;7.10;99.90;;;;;;5038592;28;20032;-71
2022/01/31 05:09:55;;;;;;;19.80;3.28;;;7.10;99.90;;;;;;5064408;28;20036;-71
2022/01/31 05:12:21;;;;;;;24.40;3.17;;;7.20;99.90;;;;;;5072229;28;20085;-69
2022/01/31 05:14:46;;;;;;;19.27;3.67;;;7.20;99.90;;;;;;5059148;28;20028;-72
2022/01/31 05:17:12;;;;;;;27.48;4.93;;;7.20;99.90;;;;;;5053676;28;20041;-69
2022/01/31 05:19:38;;;;;;;18.90;3.28;;;7.20;99.90;;;;;;5063339;28;20040;-70
2022/01/31 05:22:03;;;;;;;17.63;3.13;;;7.20;99.90;;;;;;5063796;28;20033;-69
2022/01/31 05:24:29;;;;;;;15.65;3.60;;;7.30;99.90;;;;;;5056473;28;20036;-72
2022/01/31 05:26:55;;;;;;;16.67;4.13;;;7.30;99.90;;;;;;5052378;28;20030;-71
2022/01/31 05:29:21;;;;;;;23.10;3.42;;;7.30;99.90;;;;;;5054274;28;20052;-71
2022/01/31 05:31:48;;;;;;;25.25;4.25;;;7.30;99.90;;;;;;5067562;28;20028;-70
2022/01/31 05:34:15;;;;;;;24.25;3.58;;;7.40;99.90;;;;;;5054401;28;20120;-70
2022/01/31 05:36:41;;;;;;;18.10;3.10;;;7.30;99.90;;;;;;5058529;28;20033;-71
2022/01/31 05:39:07;;;;;;;21.77;3.88;;;7.30;99.90;;;;;;5060694;28;20028;-72
2022/01/31 05:41:33;;;;;;;20.10;3.25;;;7.30;99.90;;;;;;5066215;28;20177;-72
2022/01/31 05:43:59;;;;;;;19.40;4.28;;;7.30;99.90;;;;;;5069380;28;20039;-71
2022/01/31 05:46:24;;;;;;;23.30;4.90;;;7.20;99.90;;;;;;5052634;28;20036;-72
2022/01/31 05:48:51;;;;;;;28.08;4.28;;;7.20;99.90;;;;;;5063360;28;20520;-72
2022/01/31 05:51:21;;;;;;;19.17;3.08;;;7.20;99.90;;;;;;5056472;28;20368;-70
2022/01/31 05:53:48;;;;;;;16.17;2.95;;;7.20;99.90;;;;;;5051178;28;20017;-72
2022/01/31 05:56:15;;;;;;;20.60;3.03;;;7.20;99.90;;;;;;5065401;28;20511;-71
2022/01/31 05:58:41;;;;;;;8.52;2.35;;;7.10;99.90;;;;;;5065983;28;20029;-72
2022/01/31 06:01:07;;;;;;;26.23;3.63;;;7.10;99.90;;;;;;5059819;28;20036;-72
2022/01/31 06:03:34;;;;;;;21.05;3.08;;;7.10;99.90;;;;;;5065933;28;20354;-70
2022/01/31 06:06:00;;;;;;;14.07;2.55;;;7.10;99.90;;;;;;5052940;28;20141;-69
2022/01/31 06:08:26;;;;;;;12.82;3.08;;;7.10;99.90;;;;;;5052887;28;20033;-70
2022/01/31 06:10:52;;;;;;;22.48;2.95;;;7.10;99.90;;;;;;5059199;28;20099;-69
2022/01/31 06:13:23;;;;;;;23.88;3.53;;;7.10;99.90;;;;;;5051956;28;20466;-71
2022/01/31 06:15:50;;;;;;;17.77;3.30;;;7.10;99.90;;;;;;5067346;28;20032;-70
2022/01/31 06:18:16;;;;;;;22.17;3.40;;;7.10;99.90;;;;;;5059903;28;20040;-69
2022/01/31 06:20:44;;;;;;;25.75;3.65;;;7.10;99.90;;;;;;5063155;28;20079;-71
2022/01/31 06:23:10;;;;;;;17.48;2.42;;;7.10;99.90;;;;;;5070480;28;20378;-70
2022/01/31 06:25:36;;;;;;;13.70;2.58;;;7.10;99.90;;;;;;5061019;28;20382;-70
2022/01/31 06:28:04;;;;;;;20.98;3.40;;;7.10;99.90;;;;;;5057374;28;20184;-70
2022/01/31 06:30:29;;;;;;;21.27;3.45;;;7.10;99.90;;;;;;5055879;28;20020;-71
2022/01/31 06:32:55;;;;;;;19.40;3.45;;;7.20;99.90;;;;;;5063368;28;20036;-71
2022/01/31 06:35:21;;;;;;;18.73;3.22;;;7.10;99.90;;;;;;5064741;28;20773;-70
2022/01/31 06:37:47;;;;;;;20.92;3.40;;;7.10;99.90;;;;;;5048586;28;20029;-71
2022/01/31 06:40:12;;;;;;;22.48;3.65;;;7.10;99.90;;;;;;5062447;28;20063;-70
2022/01/31 06:42:38;;;;;;;21.88;3.80;;;7.20;99.90;;;;;;5062935;28;20096;-70
2022/01/31 06:45:05;;;;;;;20.98;4.05;;;7.20;99.90;;;;;;5060245;28;20071;-69
2022/01/31 06:47:31;;;;;;;34.00;4.25;;;7.20;99.90;;;;;;5041166;28;20064;-71
2022/01/31 06:49:58;;;;;;;25.85;4.43;;;7.20;99.90;;;;;;5060060;28;20122;-70
2022/01/31 06:52:24;;;;;;;21.98;3.60;;;7.20;99.90;;;;;;5049278;28;20378;-70
2022/01/31 06:54:51;;;;;;;30.02;4.10;;;7.20;99.90;;;;;;5069268;28;20044;-71
2022/01/31 06:57:23;;;;;;;25.17;3.63;;;7.20;99.90;;;;;;5068074;28;20017;-70
2022/01/31 06:59:49;;;;;;;18.02;3.28;;;7.20;99.90;;;;;;5072012;28;20542;-71
2022/01/31 07:02:14;;;;;;;26.08;4.00;;;7.20;99.90;;;;;;5055276;28;20108;-70
2022/01/31 07:04:40;;;;;;;26.38;4.25;;;7.20;99.90;;;;;;5055871;28;20033;-70
2022/01/31 07:07:06;;;;;;;26.90;4.75;;;7.20;99.90;;;;;;5056646;28;20104;-71
2022/01/31 07:09:33;;;;;;;28.90;4.00;;;7.20;99.90;;;;;;5074890;28;20036;-71
2022/01/31 07:12:00;;;;;;;26.48;4.32;;;7.20;99.90;;;;;;5074998;28;20016;-70
2022/01/31 07:14:32;;;;;;;24.95;3.65;;;7.20;99.90;;;;;;5074249;28;20024;-69
2022/01/31 07:17:05;;;;;;;26.90;4.10;;;7.20;99.90;;;;;;5072468;28;20481;-69
2022/01/31 07:19:34;;;;;;;28.45;3.78;;;7.30;99.90;;;;;;5055281;28;20032;-68
2022/01/31 07:22:00;;;;;;;22.00;3.88;;;7.30;99.90;;;;;;5058424;28;20536;-70
2022/01/31 07:27:01;;;;;;;23.63;5.57;;;7.30;99.90;;;;;;5059049;28;20067;-70
2022/01/31 07:29:27;;;;;;;17.40;3.88;;;7.30;99.90;;;;;;5054980;28;20075;-71
2022/01/31 07:31:53;;;;;;;18.45;5.03;;;7.30;99.90;;;;;;5070046;28;20390;-70
2022/01/31 07:34:20;;;;;;;33.83;4.40;;;7.40;99.90;;;;;;5072722;28;20077;-70
2022/01/31 07:36:46;;;;;;;18.13;3.90;;;7.40;99.90;;;;;;5058917;28;20124;-69
2022/01/31 07:39:13;;;;;;;20.33;3.70;;;7.40;99.90;;;;;;5054341;28;20036;-71
2022/01/31 07:41:39;;;;;;;18.73;3.97;;;7.40;99.90;;;;;;5054906;28;20136;-71
2022/01/31 07:44:05;;;;;;;28.63;4.60;;;7.40;99.90;;;;;;5067246;28;20074;-71
2022/01/31 07:46:31;;;;;;;26.48;3.80;;;7.30;99.90;;;;;;5071653;28;20037;-71
2022/01/31 07:48:56;;;;;;;26.38;4.40;;;7.40;99.90;;;;;;5074099;28;20035;-69
2022/01/31 07:51:22;;;;;;;18.40;4.15;;;7.40;99.90;;;;;;5060634;28;20036;-69
2022/01/31 07:53:48;;;;;;;20.65;4.43;;;7.40;99.90;;;;;;5052583;28;20495;-68
2022/01/31 07:56:16;;;;;;;20.48;3.67;;;7.40;99.90;;;;;;5070392;28;20056;-68
2022/01/31 07:58:42;;;;;;;30.75;5.35;;;7.50;99.90;;;;;;5073994;28;20382;-69
2022/01/31 08:01:08;;;;;;;21.30;4.18;;;7.50;99.90;;;;;;5066459;28;20043;-69
2022/01/31 08:03:34;;;;;;;19.48;3.78;;;7.40;99.90;;;;;;5066544;28;20103;-72
2022/01/31 08:06:00;;;;;;;26.30;4.28;;;7.40;99.90;;;;;;5065835;28;20039;-71
2022/01/31 08:08:30;;;;;;;17.48;3.72;;;7.30;99.90;;;;;;5053991;28;20373;-69
2022/01/31 08:11:00;;;;;;;24.23;4.00;;;7.30;99.90;;;;;;5057381;28;20021;-69
2022/01/31 08:13:26;;;;;;;26.35;4.75;;;7.30;99.90;;;;;;5056118;28;20036;-69
2022/01/31 08:18:34;;;;;;;22.70;4.83;;;7.20;99.90;;;;;;5073377;28;20032;-70
2022/01/31 08:21:03;;;;;;;30.20;5.68;;;7.20;99.90;;;;;;5068985;28;20076;-70
2022/01/31 08:23:29;;;;;;;39.72;6.68;;;7.20;99.90;;;;;;5054166;28;20075;-69
2022/01/31 08:25:56;;;;;;;26.05;4.97;;;7.20;99.90;;;;;;5053019;28;20029;-69
2022/01/31 08:28:31;;;;;;;18.85;4.75;;;7.30;99.90;;;;;;5053668;28;20021;-71
2022/01/31 08:31:59;;;;;;;24.70;5.32;;;7.30;99.90;;;;;;5054346;28;20371;-70
2022/01/31 08:36:30;;;;;;;25.80;4.35;;;7.40;99.90;;;;;;5053418;28;20037;-70
2022/01/31 08:38:56;;;;;;;30.02;4.60;;;7.40;99.90;;;;;;5053087;28;20071;-71
2022/01/31 08:41:24;;;;;;;33.42;7.75;;;7.40;99.90;;;;;;5051927;28;20033;-70
2022/01/31 08:43:50;;;;;;;25.20;4.90;;;7.40;99.90;;;;;;5067642;28;20040;-70
2022/01/31 08:46:16;;;;;;;24.67;3.88;;;7.30;99.90;;;;;;5064441;28;20025;-70
2022/01/31 08:48:43;;;;;;;24.92;4.13;;;7.30;99.90;;;;;;5072247;28;20454;-71
2022/01/31 08:51:11;;;;;;;29.45;4.93;;;7.30;99.90;;;;;;5070057;28;20095;-71
2022/01/31 08:53:37;;;;;;;35.85;5.00;;;7.30;99.90;;;;;;5034666;28;20542;-71
2022/01/31 08:56:10;;;;;;;28.95;4.80;;;7.30;99.90;;;;;;5060212;28;20021;-70
2022/01/31 08:58:41;;;;;;;30.27;5.65;;;7.30;99.90;;;;;;5059209;28;20540;-70
2022/01/31 09:01:08;;;;;;;33.33;7.13;;;7.30;99.90;;;;;;5059848;28;20048;-70
2022/01/31 09:06:04;;;;;;;31.67;7.60;;;7.30;99.90;;;;;;5052629;28;20122;-70
2022/01/31 09:08:30;;;;;;;31.70;5.20;;;7.40;99.90;;;;;;5053270;28;20470;-70
2022/01/31 09:10:56;;;;;;;35.47;6.05;;;7.40;99.90;;;;;;5064713;28;20067;-69
2022/01/31 09:13:21;;;;;;;29.50;4.85;;;7.50;99.90;;;;;;5071798;28;20482;-69
2022/01/31 09:15:47;;;;;;;34.45;4.93;;;7.40;99.90;;;;;;5067978;28;20025;-71
2022/01/31 09:18:13;;;;;;;38.58;7.22;;;7.50;99.90;;;;;;5052121;28;20374;-70
2022/01/31 09:20:38;;;;;;;29.58;6.88;;;7.50;99.90;;;;;;5053583;28;20475;-70
2022/01/31 09:23:05;;;;;;;35.15;6.75;;;7.60;99.90;;;;;;5057191;28;20444;-70
2022/01/31 09:25:32;;;;;;;32.83;6.72;;;7.60;99.90;;;;;;5053450;28;20045;-70
2022/01/31 09:27:59;;;;;;;28.65;6.47;;;7.60;99.90;;;;;;5053372;28;20463;-69
2022/01/31 09:30:27;;;;;;;36.70;8.07;;;7.60;99.90;;;;;;5062751;28;20543;-70
2022/01/31 09:32:57;;;;;;;35.30;7.38;;;7.70;99.90;;;;;;5058886;28;20029;-70
2022/01/31 09:35:25;;;;;;;30.58;7.93;;;7.70;99.90;;;;;;5058911;28;20390;-71
2022/01/31 09:37:50;;;;;;;32.72;6.90;;;7.60;99.90;;;;;;5062821;28;20390;-69
2022/01/31 09:40:20;;;;;;;28.60;5.55;;;7.60;99.90;;;;;;5035427;28;20032;-70
2022/01/31 09:51:07;;;;;;;29.77;5.57;;;7.60;99.90;;;;;;5061661;28;20390;-70
2022/01/31 09:53:41;;;;;;;28.55;5.22;;;7.60;99.90;;;;;;5055517;28;20025;-71
2022/01/31 09:56:10;;;;;;;23.42;4.80;;;7.70;99.90;;;;;;5054379;28;20036;-71
2022/01/31 09:58:38;;;;;;;23.77;4.45;;;7.70;99.90;;;;;;5065080;28;20111;-69
2022/01/31 10:01:06;;;;;;;29.50;7.10;;;7.70;99.90;;;;;;5054143;28;20124;-69
2022/01/31 10:03:32;;;;;;;23.00;4.70;;;7.70;99.90;;;;;;5072157;28;20386;-70
2022/01/31 10:05:58;;;;;;;25.02;5.53;;;7.70;99.90;;;;;;5066366;28;20039;-71
2022/01/31 10:08:28;;;;;;;23.67;4.53;;;7.70;99.90;;;;;;5075803;28;20502;-70
2022/01/31 10:11:00;;;;;;;33.15;6.32;;;7.70;99.90;;;;;;5055758;28;20111;-70
2022/01/31 10:16:27;;;;;;;41.08;7.63;;;7.70;99.90;;;;;;5058592;28;20031;-70
2022/01/31 10:19:01;;;;;;;21.27;5.32;;;7.70;99.90;;;;;;5056271;28;20043;-70
2022/01/31 10:21:27;;;;;;;19.33;4.68;;;7.60;99.90;;;;;;5038127;28;20429;-70
2022/01/31 10:23:52;;;;;;;31.48;6.80;;;7.60;99.90;;;;;;5056079;28;20025;-69
2022/01/31 10:26:29;;;;;;;33.97;8.00;;;7.60;99.90;;;;;;5056664;28;20045;-71
2022/01/31 10:29:11;;;;;;;22.60;4.32;;;7.60;99.90;;;;;;5055173;28;20021;-70
2022/01/31 10:31:38;;;;;;;35.90;7.70;;;7.50;99.90;;;;;;5055617;28;20013;-70
2022/01/31 10:34:21;;;;;;;32.50;7.50;;;7.50;99.90;;;;;;5055691;28;20025;-70
2022/01/31 10:36:47;;;;;;;27.08;5.65;;;7.50;99.90;;;;;;5071121;28;20021;-70
2022/01/31 10:43:11;;;;;;;52.45;7.18;;;7.50;99.90;;;;;;5075568;28;20500;-67
2022/01/31 10:45:25;;;;;;;29.75;6.75;;;7.50;99.90;;;;;;5073882;28;20035;-68
2022/01/31 10:53:07;;;;;;;25.73;6.05;;;7.50;99.90;;;;;;5071577;28;20098;-69
2022/01/31 10:55:32;;;;;;;29.27;6.45;;;7.50;99.90;;;;;;5063946;28;20028;-69
2022/01/31 10:58:02;;;;;;;28.73;5.35;;;7.50;99.90;;;;;;5071620;28;20446;-71
2022/01/31 11:00:33;;;;;;;29.67;5.90;;;7.50;99.90;;;;;;5037016;28;20055;-69
2022/01/31 11:03:20;;;;;;;29.20;6.72;;;7.60;99.90;;;;;;5055196;28;20091;-71
2022/01/31 11:05:49;;;;;;;37.55;7.13;;;7.60;99.90;;;;;;5054877;28;20078;-71
2022/01/31 11:08:16;;;;;;;33.03;6.68;;;7.60;99.90;;;;;;5054941;28;20070;-70
2022/01/31 11:10:42;;;;;;;32.25;6.35;;;7.60;99.90;;;;;;5054430;28;20116;-70
2022/01/31 11:13:08;;;;;;;26.23;7.20;;;7.60;99.90;;;;;;5054561;28;20107;-70
2022/01/31 11:15:35;;;;;;;31.15;5.63;;;7.60;99.90;;;;;;5055006;28;20025;-71
2022/01/31 11:18:01;;;;;;;37.10;6.85;;;7.70;99.90;;;;;;5054037;28;20021;-69
2022/01/31 11:20:27;;;;;;;30.92;5.70;;;7.70;99.90;;;;;;5055696;28;20037;-68
2022/01/31 11:22:58;;;;;;;33.35;6.47;;;7.70;99.90;;;;;;5054261;28;20119;-69
2022/01/31 11:25:28;;;;;;;37.42;6.95;;;7.80;99.90;;;;;;5065048;28;20036;-69
2022/01/31 11:27:58;;;;;;;37.53;6.68;;;7.80;99.90;;;;;;5066936;28;20028;-71
2022/01/31 11:30:25;;;;;;;26.73;6.50;;;7.80;99.90;;;;;;5069016;28;20033;-70
2022/01/31 11:32:52;;;;;;;32.72;8.00;;;7.80;99.90;;;;;;5055202;28;20521;-71
2022/01/31 11:35:18;;;;;;;30.67;8.07;;;7.90;99.90;;;;;;5054401;28;20489;-72
2022/01/31 11:37:44;;;;;;;33.35;7.15;;;7.90;99.90;;;;;;5055316;28;20036;-70
2022/01/31 11:40:11;;;;;;;34.70;6.82;;;7.90;99.90;;;;;;5069290;28;20115;-71
2022/01/31 11:42:41;;;;;;;41.67;11.07;;;7.90;99.90;;;;;;5059995;28;20032;-69
2022/01/31 11:45:27;;;;;;;37.95;9.40;;;7.90;99.90;;;;;;5060247;28;20024;-71
2022/01/31 11:47:56;;;;;;;33.78;6.70;;;7.90;99.90;;;;;;5069200;28;20020;-70
2022/01/31 11:50:23;;;;;;;37.88;6.25;;;7.90;99.90;;;;;;5062615;28;20080;-71
2022/01/31 11:53:25;;;;;;;46.70;7.88;;;7.90;99.90;;;;;;5057227;28;20025;-71
2022/01/31 11:55:51;;;;;;;43.35;6.55;;;7.90;99.90;;;;;;5069497;28;20588;-69
2022/01/31 11:58:17;;;;;;;30.95;7.55;;;7.90;99.90;;;;;;5067694;28;20047;-69
2022/01/31 12:00:46;;;;;;;34.85;7.95;;;7.90;99.90;;;;;;5059726;28;20108;-70
2022/01/31 12:03:15;;;;;;;34.42;6.95;;;7.80;99.90;;;;;;5063293;28;20033;-72
2022/01/31 12:05:43;;;;;;;30.67;5.57;;;7.80;99.90;;;;;;5053935;28;20032;-71
2022/01/31 12:08:16;;;;;;;31.02;6.25;;;7.80;99.90;;;;;;5064758;28;20021;-71
2022/01/31 12:11:03;;;;;;;32.95;5.35;;;7.90;99.90;;;;;;5058798;28;20033;-69
2022/01/31 12:13:47;;;;;;;33.38;7.82;;;7.80;99.90;;;;;;5057541;28;20017;-70
2022/01/31 12:16:41;;;;;;;40.15;8.98;;;7.90;99.90;;;;;;5056975;28;20029;-70
2022/01/31 12:22:08;;;;;;;30.35;6.88;;;7.90;99.90;;;;;;5039678;28;20525;-71
2022/01/31 12:24:44;;;;;;;37.63;6.63;;;8.00;99.90;;;;;;5061129;28;20145;-70
2022/01/31 12:27:15;;;;;;;44.35;6.57;;;8.00;99.90;;;;;;5062374;28;20033;-72
2022/01/31 12:29:44;;;;;;;41.47;7.57;;;8.00;99.90;;;;;;5064703;28;20016;-72
2022/01/31 12:32:32;;;;;;;29.42;6.60;;;8.10;99.90;;;;;;5064129;28;20154;-70
2022/01/31 12:35:08;;;;;;;35.22;6.53;;;8.10;99.90;;;;;;5057859;28;20043;-69
2022/01/31 12:37:36;;;;;;;38.28;7.00;;;8.20;99.90;;;;;;5056135;28;20055;-72
2022/01/31 12:40:29;;;;;;;41.00;8.20;;;8.20;99.90;;;;;;5063835;28;20044;-68
2022/01/31 12:43:23;;;;;;;30.67;7.45;;;8.20;99.90;;;;;;5063836;28;20066;-70
2022/01/31 12:46:01;;;;;;;42.95;7.30;;;8.20;99.90;;;;;;5057785;28;20814;-72
2022/01/31 12:48:27;;;;;;;28.48;5.65;;;8.20;99.90;;;;;;5054149;28;20017;-72
2022/01/31 12:50:52;;;;;;;33.25;6.28;;;8.30;99.90;;;;;;5057068;28;20052;-71
2022/01/31 12:53:42;;;;;;;33.97;6.75;;;8.30;99.90;;;;;;5053116;28;20066;-69
2022/01/31 12:56:14;;;;;;;36.72;6.13;;;8.20;99.90;;;;;;5042623;28;20501;-72
2022/01/31 12:58:41;;;;;;;33.17;4.97;;;8.20;99.90;;;;;;5053325;28;20107;-69
2022/01/31 13:01:10;;;;;;;29.40;5.97;;;8.10;99.90;;;;;;5040726;28;20045;-70
2022/01/31 13:03:37;;;;;;;27.15;6.13;;;8.10;99.90;;;;;;5063429;28;20389;-72
2022/01/31 13:06:03;;;;;;;23.58;5.90;;;8.10;99.90;;;;;;5055500;28;20052;-69
2022/01/31 13:08:29;;;;;;;39.63;7.50;;;8.10;99.90;;;;;;5062572;28;20470;-70
2022/01/31 13:10:55;;;;;;;31.52;6.90;;;8.10;99.90;;;;;;5064308;28;20041;-69
2022/01/31 13:13:37;;;;;;;27.33;6.10;;;8.10;99.90;;;;;;5061475;28;20032;-69
2022/01/31 13:16:07;;;;;;;35.53;6.60;;;8.10;99.90;;;;;;5054230;28;20027;-72
2022/01/31 13:18:34;;;;;;;29.20;6.32;;;8.20;99.90;;;;;;5055662;28;20021;-71
2022/01/31 13:21:06;;;;;;;30.55;7.25;;;8.30;99.90;;;;;;5058909;28;20037;-70
2022/01/31 13:23:32;;;;;;;31.70;6.28;;;8.40;99.90;;;;;;5069301;28;20549;-71
2022/01/31 13:26:06;;;;;;;26.65;5.18;;;8.40;99.90;;;;;;5037701;28;20036;-69
2022/01/31 13:28:33;;;;;;;32.72;5.57;;;8.40;99.90;;;;;;5060601;28;20719;-72